Time;durP1;ratioP1;P1;durP2;ratioP2;P2;SDS_P1;SDS_P2;PMS_P1;PMS_P2;Temp;Humidity;BMP_temperature;BMP_pressure;BME280_temperature;BME280_humidity;BME280_pressure;Samples;Min_cycle;Max_cycle;Signal;HPM_P1;HPM_P2
2022/01/24 00:02:28;;;;;;;0.50;0.50;;;;;;;6.03;72.64;102883.41;5191461;28;20110;-81
2022/01/24 00:04:59;;;;;;;0.77;0.77;;;;;;;5.99;72.31;102878.94;5165056;28;20038;-82
2022/01/24 00:07:29;;;;;;;1.00;1.00;;;;;;;6.05;73.14;102876.47;5185151;28;20029;-81
2022/01/24 00:10:06;;;;;;;0.70;0.70;;;;;;;5.95;71.10;102872.72;5204441;28;20029;-82
2022/01/24 00:12:48;;;;;;;0.50;0.50;;;;;;;6.08;72.66;102875.66;5225185;28;20036;-82
2022/01/24 00:15:47;;;;;;;0.73;0.73;;;;;;;6.05;73.52;102879.09;5191220;28;20260;-81
2022/01/24 00:18:26;;;;;;;0.50;0.50;;;;;;;6.07;73.11;102874.81;5206480;28;20292;-83
2022/01/24 00:26:47;;;;;;;0.70;0.70;;;;;;;6.02;73.20;102867.69;5196160;28;20029;-81
2022/01/24 00:29:20;;;;;;;0.60;0.60;;;;;;;6.04;72.89;102866.03;5190270;28;20036;-81
2022/01/24 00:31:52;;;;;;;1.38;1.05;;;;;;;6.07;72.48;102860.91;5206696;28;20044;-82
2022/01/24 00:34:23;;;;;;;0.60;0.60;;;;;;;6.11;73.13;102873.16;5205034;28;20041;-82
2022/01/24 00:36:54;;;;;;;0.50;0.50;;;;;;;5.93;71.96;102863.97;5218063;28;20036;-82
2022/01/24 00:39:24;;;;;;;4.15;1.63;;;;;;;5.91;72.08;102857.84;5190860;28;20064;-82
2022/01/24 00:52:58;;;;;;;0.63;0.63;;;;;;;5.73;70.87;102870.38;5209465;28;20041;-80
2022/01/24 00:53:11;;;;;;;0.45;0.45;;;;;;;5.79;71.77;102871.41;5205673;28;20037;-80
2022/01/24 00:55:44;;;;;;;1.13;1.02;;;;;;;5.87;72.11;102873.38;5205814;28;20029;-80
2022/01/24 00:58:15;;;;;;;0.85;0.85;;;;;;;5.89;72.17;102866.47;5189187;28;20043;-81
2022/01/24 01:00:48;;;;;;;0.65;0.65;;;;;;;5.83;72.09;102869.78;5249095;28;20039;-82
2022/01/24 01:03:19;;;;;;;1.05;1.05;;;;;;;5.82;72.50;102861.09;5222899;28;20152;-85
2022/01/24 01:06:05;;;;;;;1.27;1.00;;;;;;;5.88;72.82;102862.97;5210325;28;20025;-81
2022/01/24 01:19:56;;;;;;;0.52;0.52;;;;;;;5.81;72.68;102845.44;5210045;28;20029;-82
2022/01/24 01:22:26;;;;;;;0.80;0.80;;;;;;;5.80;72.32;102841.06;5231723;28;20629;-81
2022/01/24 01:24:57;;;;;;;0.77;0.77;;;;;;;5.82;72.81;102840.25;5191394;28;20215;-80
2022/01/24 01:27:40;;;;;;;0.88;0.88;;;;;;;5.83;72.40;102839.41;5189108;28;20044;-81
2022/01/24 01:30:17;;;;;;;0.80;0.80;;;;;;;5.81;72.32;102843.69;5186730;28;20079;-81
2022/01/24 01:56:46;;;;;;;0.75;0.75;;;;;;;5.78;72.76;102846.22;5204828;28;20072;-81
2022/01/24 01:59:16;;;;;;;0.57;0.57;;;;;;;5.78;71.92;102853.16;5203577;28;20091;-81
2022/01/24 02:01:47;;;;;;;0.52;0.52;;;;;;;5.72;72.18;102850.38;5198281;28;20034;-81
2022/01/24 02:04:18;;;;;;;0.73;0.73;;;;;;;5.68;72.00;102852.88;5177304;28;20037;-80
2022/01/24 02:06:49;;;;;;;0.50;0.50;;;;;;;5.66;72.51;102851.97;5193672;28;20030;-81
2022/01/24 02:09:22;;;;;;;0.75;0.75;;;;;;;5.61;72.73;102850.97;5187528;28;20037;-80
2022/01/24 02:11:53;;;;;;;0.70;0.70;;;;;;;5.58;72.43;102844.78;5191649;28;20085;-81
2022/01/24 02:14:30;;;;;;;0.40;0.40;;;;;;;5.60;71.83;102840.50;5186165;28;20575;-80
2022/01/24 02:17:08;;;;;;;0.43;0.43;;;;;;;5.62;72.58;102841.44;5214625;28;20128;-81
2022/01/24 02:24:59;;;;;;;1.02;1.02;;;;;;;5.57;72.55;102846.53;5186491;28;20049;-81
2022/01/24 02:27:41;;;;;;;0.70;0.70;;;;;;;5.55;72.75;102839.47;5217224;28;20360;-80
2022/01/24 02:33:01;;;;;;;1.27;1.15;;;;;;;5.60;72.61;102832.69;5190360;28;20030;-82
2022/01/24 02:35:32;;;;;;;0.63;0.63;;;;;;;5.56;72.89;102831.72;5207385;28;20044;-81
2022/01/24 02:38:10;;;;;;;0.50;0.50;;;;;;;5.55;72.64;102829.97;5202506;28;20033;-80
2022/01/24 02:40:41;;;;;;;0.50;0.50;;;;;;;5.55;72.20;102829.97;5196026;28;20082;-81
2022/01/24 02:48:52;;;;;;;0.50;0.50;;;;;;;5.59;72.79;102837.00;5206914;28;20032;-82
2022/01/24 02:53:53;;;;;;;0.50;0.50;;;;;;;5.55;73.09;102816.94;5228207;28;20041;-82
2022/01/24 02:56:23;;;;;;;0.50;0.50;;;;;;;5.59;72.67;102816.16;5199260;28;20591;-83
2022/01/24 02:58:54;;;;;;;0.40;0.40;;;;;;;5.62;72.36;102821.47;5190445;28;20038;-82
2022/01/24 03:01:24;;;;;;;2.28;2.08;;;;;;;5.58;72.37;102813.53;5180713;28;20043;-81
2022/01/24 03:03:55;;;;;;;0.75;0.75;;;;;;;5.54;72.51;102823.00;5198191;28;20098;-81
2022/01/24 03:06:25;;;;;;;0.40;0.40;;;;;;;5.50;72.80;102818.53;5227740;28;20044;-82
2022/01/24 03:08:56;;;;;;;0.40;0.40;;;;;;;5.55;73.01;102808.22;5198734;28;20022;-83
2022/01/24 03:11:38;;;;;;;0.98;0.98;;;;;;;5.58;72.84;102806.59;5200255;28;20013;-82
2022/01/24 03:14:08;;;;;;;1.05;1.05;;;;;;;5.53;72.67;102804.72;5200974;28;20037;-82
2022/01/24 03:16:39;;;;;;;0.57;0.57;;;;;;;5.52;72.17;102803.81;5184590;28;20382;-83
2022/01/24 03:19:09;;;;;;;0.80;0.80;;;;;;;5.56;71.83;102796.97;5189797;28;20696;-81
2022/01/24 03:21:44;;;;;;;0.60;0.60;;;;;;;5.53;72.23;102800.38;5184070;28;20025;-82
2022/01/24 03:24:14;;;;;;;0.50;0.50;;;;;;;5.54;71.83;102794.34;5183580;28;20048;-81
2022/01/24 03:26:47;;;;;;;0.47;0.47;;;;;;;5.55;72.33;102793.50;5199434;28;20041;-81
2022/01/24 03:29:17;;;;;;;0.93;0.93;;;;;;;5.46;70.92;102785.44;5191076;28;20031;-80
2022/01/24 03:31:48;;;;;;;0.50;0.50;;;;;;;5.49;72.33;102789.00;5206397;28;20033;-81
2022/01/24 03:34:19;;;;;;;0.70;0.70;;;;;;;5.45;71.79;102791.47;5223678;28;20043;-82
2022/01/24 03:36:49;;;;;;;0.43;0.43;;;;;;;5.50;71.93;102798.59;5201561;28;20037;-81
2022/01/24 03:39:20;;;;;;;0.55;0.55;;;;;;;5.46;72.21;102804.53;5189168;28;20033;-82
2022/01/24 03:41:50;;;;;;;1.10;1.08;;;;;;;5.47;72.65;102800.22;5215706;28;20072;-81
2022/01/24 03:44:23;;;;;;;0.40;0.40;;;;;;;5.49;72.40;102808.97;5186918;28;20021;-82
2022/01/24 03:49:46;;;;;;;0.40;0.40;;;;;;;5.39;71.89;102812.16;5197218;28;20084;-82
2022/01/24 03:52:18;;;;;;;0.73;0.73;;;;;;;5.25;70.56;102799.59;5168828;28;20103;-82
2022/01/24 03:54:49;;;;;;;0.50;0.50;;;;;;;5.34;71.80;102810.28;5186046;28;20029;-82
2022/01/24 03:57:20;;;;;;;0.63;0.63;;;;;;;5.34;72.46;102812.03;5168762;28;20125;-81
2022/01/24 03:59:51;;;;;;;0.75;0.75;;;;;;;5.31;72.44;102805.00;5201439;28;20100;-82
2022/01/24 04:02:24;;;;;;;0.40;0.40;;;;;;;5.39;72.34;102809.56;5193095;28;20624;-82
2022/01/24 04:04:55;;;;;;;;;;;;;;;5.36;72.07;102818.16;5185391;28;20034;-81
2022/01/24 04:07:26;;;;;;;0.47;0.47;;;;;;;5.31;72.28;102806.72;5213655;28;19925;-82
2022/01/24 04:10:00;;;;;;;0.60;0.60;;;;;;;5.30;72.21;102815.34;5194556;28;20498;-82
2022/01/24 04:12:32;;;;;;;0.70;0.70;;;;;;;5.29;72.11;102811.88;5219400;28;20048;-81
2022/01/24 04:18:31;;;;;;;0.40;0.40;;;;;;;5.32;72.38;102819.78;5199329;28;20065;-81
2022/01/24 04:24:03;;;;;;;0.90;0.90;;;;;;;5.27;71.95;102816.16;5247229;28;20072;-81
2022/01/24 04:26:35;;;;;;;0.70;0.70;;;;;;;5.29;72.25;102806.69;5219138;28;20120;-80
2022/01/24 04:29:07;;;;;;;0.93;0.93;;;;;;;5.29;72.40;102811.88;5187439;28;20035;-81
2022/01/24 04:31:38;;;;;;;0.52;0.52;;;;;;;5.30;72.79;102805.84;5201483;28;20029;-81
2022/01/24 04:34:08;;;;;;;0.50;0.50;;;;;;;5.29;72.34;102804.06;5185442;28;20772;-82
2022/01/24 04:36:39;;;;;;;0.40;0.40;;;;;;;5.34;72.05;102802.47;5168791;28;20053;-81
2022/01/24 04:39:10;;;;;;;0.70;0.70;;;;;;;5.32;72.22;102798.06;5186928;28;20101;-81
2022/01/24 04:41:44;;;;;;;0.40;0.40;;;;;;;5.30;72.72;102800.63;5192400;28;20108;-81
2022/01/24 04:50:38;;;;;;;0.50;0.50;;;;;;;5.34;72.47;102810.28;5221522;28;20120;-80
2022/01/24 04:53:03;;;;;;;1.02;1.02;;;;;;;5.31;72.25;102809.31;5217377;28;20041;-79
2022/01/24 04:55:33;;;;;;;0.73;0.73;;;;;;;5.13;71.09;102814.88;5221730;28;20694;-80
2022/01/24 04:58:04;;;;;;;0.63;0.63;;;;;;;5.20;72.38;102809.00;5229120;28;20040;-80
2022/01/24 05:00:34;;;;;;;0.50;0.50;;;;;;;5.20;72.68;102807.31;5190853;28;20090;-80
2022/01/24 05:03:05;;;;;;;0.93;0.93;;;;;;;5.24;71.51;102810.88;5182398;28;20099;-80
2022/01/24 05:05:35;;;;;;;0.90;0.90;;;;;;;5.25;72.44;102809.16;5208059;28;20044;-81
2022/01/24 05:08:08;;;;;;;0.60;0.60;;;;;;;5.29;72.32;102808.41;5207658;28;20029;-80
2022/01/24 05:10:52;;;;;;;0.65;0.65;;;;;;;5.25;72.48;102809.16;5210322;28;20685;-81
2022/01/24 05:24:38;;;;;;;1.27;1.27;;;;;;;5.15;72.53;102808.88;5185945;28;20089;-81
2022/01/24 05:27:09;;;;;;;3.83;1.60;;;;;;;5.28;72.72;102804.91;5171959;28;20133;-82
2022/01/24 05:29:40;;;;;;;0.82;0.82;;;;;;;5.20;71.65;102814.22;5171196;28;20148;-82
2022/01/24 05:32:19;;;;;;;0.55;0.55;;;;;;;5.18;72.01;102815.88;5200689;28;20038;-82
2022/01/24 05:34:52;;;;;;;0.93;0.93;;;;;;;4.93;72.38;102812.56;5186709;28;20116;-81
2022/01/24 05:37:23;;;;;;;0.50;0.50;;;;;;;5.17;72.82;102811.50;5186999;28;20113;-81
2022/01/24 05:39:53;;;;;;;1.58;1.30;;;;;;;5.22;72.76;102811.66;5208455;28;20057;-81
2022/01/24 05:42:24;;;;;;;0.65;0.65;;;;;;;5.26;72.62;102809.19;5186498;28;20041;-80
2022/01/24 05:44:55;;;;;;;0.50;0.50;;;;;;;5.23;73.25;102811.72;5184612;28;20081;-83
2022/01/24 05:47:25;;;;;;;0.40;0.40;;;;;;;5.31;72.71;102809.31;5167118;28;20049;-82
2022/01/24 05:49:56;;;;;;;0.43;0.43;;;;;;;5.31;72.81;102814.53;5208337;28;20104;-82
2022/01/24 05:52:27;;;;;;;0.68;0.68;;;;;;;5.23;72.35;102816.03;5169924;28;20056;-83
2022/01/24 05:54:58;;;;;;;0.63;0.63;;;;;;;5.30;72.75;102817.97;5169460;28;20022;-83
2022/01/24 05:57:28;;;;;;;0.60;0.60;;;;;;;5.29;72.48;102814.50;5172897;28;20038;-83
2022/01/24 06:00:00;;;;;;;0.70;0.70;;;;;;;5.32;73.27;102812.00;5203052;28;20052;-83
2022/01/24 06:02:31;;;;;;;0.55;0.55;;;;;;;5.22;72.13;102819.47;5170237;28;20056;-83
2022/01/24 06:05:02;;;;;;;0.40;0.40;;;;;;;5.32;72.26;102813.69;5188170;28;20029;-83
2022/01/24 06:07:33;;;;;;;0.40;0.40;;;;;;;5.31;72.11;102820.63;5207748;28;20071;-82
2022/01/24 06:10:05;;;;;;;1.33;1.23;;;;;;;5.36;72.46;102819.03;5217710;28;20029;-83
2022/01/24 06:12:36;;;;;;;0.40;0.40;;;;;;;5.37;72.47;102814.72;5187738;28;20044;-82
2022/01/24 06:15:07;;;;;;;0.60;0.60;;;;;;;5.33;72.22;102826.75;5213514;28;20025;-83
2022/01/24 06:17:38;;;;;;;0.60;0.60;;;;;;;5.43;72.80;102821.78;5223122;28;20538;-83
2022/01/24 06:20:08;;;;;;;0.50;0.50;;;;;;;5.39;72.35;102833.84;5192723;28;20487;-83
2022/01/24 06:22:40;;;;;;;0.40;0.40;;;;;;;5.34;72.49;102831.09;5199031;28;20036;-83
2022/01/24 06:25:13;;;;;;;0.40;0.40;;;;;;;5.34;72.84;102830.25;5188723;28;20044;-83
2022/01/24 06:27:43;;;;;;;0.63;0.63;;;;;;;5.44;72.37;102836.59;5169978;28;20029;-83
2022/01/24 06:30:14;;;;;;;0.60;0.60;;;;;;;5.34;72.69;102833.72;5194771;28;20116;-83
2022/01/24 06:32:46;;;;;;;0.40;0.40;;;;;;;5.36;72.25;102834.66;5171557;28;20040;-83
2022/01/24 06:35:17;;;;;;;0.50;0.50;;;;;;;5.36;72.75;102837.25;5169756;28;20088;-84
2022/01/24 06:37:47;;;;;;;1.50;1.40;;;;;;;5.35;72.30;102834.63;5181415;28;20301;-83
2022/01/24 06:40:18;;;;;;;0.80;0.77;;;;;;;5.42;72.69;102838.25;5173903;28;20029;-83
2022/01/24 06:42:49;;;;;;;0.90;0.90;;;;;;;5.42;72.35;102843.47;5175797;28;20056;-83
2022/01/24 06:45:20;;;;;;;0.77;0.77;;;;;;;5.39;72.37;102840.78;5204230;28;20025;-83
2022/01/24 06:47:50;;;;;;;1.45;1.05;;;;;;;5.39;72.71;102839.06;5200946;28;20039;-83
2022/01/24 06:50:24;;;;;;;0.40;0.40;;;;;;;5.38;72.42;102836.41;5225734;28;20036;-83
2022/01/24 06:52:54;;;;;;;0.65;0.65;;;;;;;5.35;72.18;102835.47;5207894;28;20530;-83
2022/01/24 06:55:25;;;;;;;0.50;0.50;;;;;;;5.29;72.03;102834.44;5187307;28;20496;-83
2022/01/24 06:57:56;;;;;;;0.40;0.40;;;;;;;5.26;72.39;102832.59;5202128;28;20042;-83
2022/01/24 07:00:27;;;;;;;0.60;0.60;;;;;;;5.30;72.43;102834.47;5173608;28;20427;-83
2022/01/24 07:02:59;;;;;;;0.60;0.60;;;;;;;5.25;72.73;102836.03;5169826;28;20034;-83
2022/01/24 07:05:31;;;;;;;0.68;0.68;;;;;;;5.27;72.50;102834.38;5173973;28;20063;-83
2022/01/24 07:08:01;;;;;;;0.50;0.50;;;;;;;5.24;72.40;102826.50;5203139;28;20052;-83
2022/01/24 07:10:33;;;;;;;0.40;0.40;;;;;;;5.20;72.75;102837.66;5194182;28;20029;-82
2022/01/24 07:13:03;;;;;;;0.60;0.60;;;;;;;5.12;73.20;102834.84;5180717;28;20217;-81
2022/01/24 07:15:40;;;;;;;0.90;0.90;;;;;;;5.14;72.32;102833.13;5186930;28;20097;-83
2022/01/24 07:18:57;;;;;;;0.65;0.65;;;;;;;5.08;72.51;102839.91;5201465;28;20037;-84
2022/01/24 07:21:05;;;;;;;0.40;0.40;;;;;;;5.10;72.64;102839.09;5210235;28;20028;-83
2022/01/24 07:23:40;;;;;;;0.50;0.50;;;;;;;5.08;72.74;102839.91;5212243;28;20582;-83
2022/01/24 07:26:11;;;;;;;1.00;0.95;;;;;;;5.07;72.57;102838.13;5231917;28;20051;-83
2022/01/24 07:28:45;;;;;;;0.50;0.50;;;;;;;5.01;72.94;102841.44;5212325;28;20021;-83
2022/01/24 07:31:16;;;;;;;0.80;0.80;;;;;;;5.02;72.67;102838.88;5182935;28;20030;-82
2022/01/24 07:33:46;;;;;;;0.50;0.50;;;;;;;5.03;73.02;102843.22;5224477;28;20033;-81
2022/01/24 07:36:17;;;;;;;0.40;0.40;;;;;;;5.00;72.70;102845.72;5205691;28;20084;-82
2022/01/24 07:38:50;;;;;;;0.50;0.50;;;;;;;5.06;73.13;102851.97;5200461;28;20040;-83
2022/01/24 07:41:27;;;;;;;0.85;0.85;;;;;;;4.94;72.89;102845.56;5232716;28;20101;-83
2022/01/24 07:43:58;;;;;;;0.50;0.50;;;;;;;4.95;72.82;102849.06;5206335;28;20057;-84
2022/01/24 07:46:28;;;;;;;0.50;0.50;;;;;;;4.95;72.71;102852.53;5194652;28;20114;-84
2022/01/24 07:49:07;;;;;;;0.75;0.75;;;;;;;5.02;72.74;102853.59;5241186;28;20017;-84
2022/01/24 07:51:38;;;;;;;1.02;0.98;;;;;;;5.02;72.08;102851.88;5206776;28;20056;-83
2022/01/24 07:54:09;;;;;;;0.60;0.60;;;;;;;5.02;72.35;102861.41;5217049;28;20075;-84
2022/01/24 07:56:40;;;;;;;0.60;0.60;;;;;;;4.95;72.77;102860.31;5218888;28;20155;-83
2022/01/24 07:59:11;;;;;;;1.05;1.05;;;;;;;4.92;72.38;102867.16;5178224;28;20017;-84
2022/01/24 08:01:42;;;;;;;1.50;1.50;;;;;;;4.91;73.17;102871.50;5187544;28;20064;-81
2022/01/24 08:04:13;;;;;;;2.05;0.95;;;;;;;4.91;73.09;102873.19;5202496;28;20029;-83
2022/01/24 08:06:46;;;;;;;0.80;0.80;;;;;;;4.87;73.02;102882.63;5201447;28;20362;-81
2022/01/24 08:09:19;;;;;;;1.95;1.75;;;;;;;4.94;73.50;102870.69;5193236;28;20029;-82
2022/01/24 08:11:50;;;;;;;0.68;0.68;;;;;;;4.89;72.38;102874.03;5191294;28;21594;-83
2022/01/24 08:14:21;;;;;;;0.80;0.75;;;;;;;4.86;72.92;102875.66;5243162;28;20033;-83
2022/01/24 08:16:51;;;;;;;6.85;3.30;;;;;;;4.88;73.24;102871.38;5203738;28;20036;-83
2022/01/24 08:19:22;;;;;;;1.65;1.05;;;;;;;4.81;73.14;102874.63;5185854;28;20120;-82
2022/01/24 08:21:53;;;;;;;0.70;0.70;;;;;;;4.82;73.11;102866.00;5180613;28;20044;-82
2022/01/24 08:24:24;;;;;;;0.75;0.75;;;;;;;4.85;72.87;102861.78;5176395;28;20037;-83
2022/01/24 08:26:54;;;;;;;3.58;2.20;;;;;;;4.88;71.92;102867.06;5179903;28;20037;-83
2022/01/24 08:29:25;;;;;;;1.90;1.77;;;;;;;4.89;72.62;102867.94;5188605;28;20042;-82
2022/01/24 08:31:56;;;;;;;0.90;0.90;;;;;;;4.89;72.72;102862.75;5192131;28;20084;-81
2022/01/24 08:34:26;;;;;;;11.40;2.20;;;;;;;4.87;72.50;102869.63;5186152;28;20388;-82
2022/01/24 08:36:57;;;;;;;0.80;0.80;;;;;;;4.84;72.72;102866.91;5168879;28;20082;-82
2022/01/24 08:39:27;;;;;;;1.00;1.00;;;;;;;4.90;72.54;102874.94;5185488;28;20093;-83
2022/01/24 08:42:10;;;;;;;0.43;0.43;;;;;;;4.92;72.46;102878.44;5171508;28;20038;-83
2022/01/24 08:47:31;;;;;;;0.82;0.82;;;;;;;4.88;71.93;102884.41;5197065;28;20030;-82
2022/01/24 08:50:05;;;;;;;1.25;1.25;;;;;;;4.85;72.62;102884.28;5169871;28;20037;-83
2022/01/24 08:52:35;;;;;;;;;;;;;;;4.85;72.69;102892.09;5166637;28;20085;-84
2022/01/24 08:55:07;;;;;;;0.90;0.88;;;;;;;4.83;72.97;102880.78;5178051;28;20279;-84
2022/01/24 08:57:40;;;;;;;1.50;1.40;;;;;;;4.91;72.25;102887.09;5180927;28;20061;-80
2022/01/24 09:00:12;;;;;;;0.90;0.90;;;;;;;4.81;73.15;102890.25;5203020;28;20030;-83
2022/01/24 09:02:46;;;;;;;0.73;0.73;;;;;;;4.91;73.24;102887.09;5204572;28;20035;-82
2022/01/24 09:05:18;;;;;;;0.98;0.98;;;;;;;4.85;73.31;102886.88;5205304;28;20035;-82
2022/01/24 09:07:52;;;;;;;0.63;0.63;;;;;;;4.85;74.07;102886.88;5191399;28;20064;-82
2022/01/24 09:10:31;;;;;;;0.77;0.77;;;;;;;4.92;73.08;102883.63;5197526;28;20104;-83
2022/01/24 09:13:02;;;;;;;2.05;1.95;;;;;;;4.93;73.58;102885.41;5184912;28;20057;-83
2022/01/24 09:15:33;;;;;;;0.50;0.50;;;;;;;4.98;73.57;102873.44;5204048;28;20489;-83
2022/01/24 09:18:04;;;;;;;0.80;0.80;;;;;;;4.99;73.67;102879.53;5212945;28;20045;-82
2022/01/24 09:20:38;;;;;;;1.20;1.20;;;;;;;4.99;73.85;102880.41;5174750;28;20030;-83
2022/01/24 09:23:09;;;;;;;1.00;1.00;;;;;;;5.01;73.74;102872.66;5184307;28;20045;-83
2022/01/24 09:25:40;;;;;;;1.25;1.25;;;;;;;5.05;73.68;102874.50;5191652;28;20024;-83
2022/01/24 09:28:13;;;;;;;1.20;1.20;;;;;;;5.13;73.90;102873.00;5206802;28;20513;-82
2022/01/24 09:30:46;;;;;;;0.88;0.88;;;;;;;5.08;73.89;102873.72;5188700;28;20118;-83
2022/01/24 09:33:16;;;;;;;0.68;0.68;;;;;;;5.13;73.76;102872.13;5179001;28;20122;-83
2022/01/24 09:35:47;;;;;;;0.43;0.43;;;;;;;5.14;74.09;102869.56;5226996;28;20037;-83
2022/01/24 09:38:20;;;;;;;0.47;0.47;;;;;;;5.16;74.03;102862.69;5189687;28;20048;-84
2022/01/24 09:40:51;;;;;;;0.77;0.77;;;;;;;5.20;74.32;102864.56;5175420;28;20032;-81
2022/01/24 09:43:22;;;;;;;0.52;0.52;;;;;;;5.27;74.17;102855.19;5180676;28;20391;-82
2022/01/24 09:45:53;;;;;;;0.80;0.80;;;;;;;5.29;73.60;102858.75;5175816;28;20029;-82
2022/01/24 09:48:24;;;;;;;1.25;1.15;;;;;;;5.27;73.62;102860.41;5182820;28;20124;-82
2022/01/24 09:50:55;;;;;;;0.82;0.82;;;;;;;5.29;73.52;102856.13;5171888;28;20026;-83
2022/01/24 09:53:26;;;;;;;0.65;0.65;;;;;;;5.28;74.10;102869.13;5218747;28;20040;-82
2022/01/24 09:56:02;;;;;;;1.83;0.85;;;;;;;5.32;73.80;102861.44;5207279;28;20095;-82
2022/01/24 09:58:35;;;;;;;0.75;0.75;;;;;;;5.24;73.71;102865.53;5206402;28;20029;-83
2022/01/24 10:01:07;;;;;;;2.97;1.17;;;;;;;5.37;73.63;102866.78;5190893;28;20043;-83
2022/01/24 10:03:38;;;;;;;0.57;0.57;;;;;;;5.44;73.17;102870.44;5206652;28;20280;-82
2022/01/24 10:06:09;;;;;;;0.43;0.43;;;;;;;5.42;73.39;102870.41;5205825;28;20666;-82
2022/01/24 10:08:39;;;;;;;0.70;0.70;;;;;;;5.50;72.02;102873.19;5173346;28;20034;-83
2022/01/24 10:11:17;;;;;;;0.85;0.85;;;;;;;5.49;73.78;102868.84;5171103;28;20057;-84
2022/01/24 10:16:43;;;;;;;0.60;0.60;;;;;;;5.39;72.08;102874.63;5202421;28;20029;-83
2022/01/24 10:19:19;;;;;;;0.75;0.75;;;;;;;5.35;71.87;102869.31;5189909;28;20025;-83
2022/01/24 10:21:57;;;;;;;0.95;0.93;;;;;;;5.44;72.59;102873.03;5187389;28;20060;-84
2022/01/24 10:24:54;;;;;;;0.68;0.68;;;;;;;5.55;73.13;102865.53;5188720;28;20657;-84
2022/01/24 10:27:28;;;;;;;0.50;0.50;;;;;;;5.59;73.63;102862.19;5177892;28;20052;-81
2022/01/24 10:30:10;;;;;;;0.82;0.82;;;;;;;5.62;73.14;102865.75;5201526;28;20040;-83
2022/01/24 10:32:42;;;;;;;0.55;0.55;;;;;;;5.63;73.90;102859.72;5183669;28;20038;-83
2022/01/24 10:35:31;;;;;;;0.63;0.63;;;;;;;5.69;73.40;102859.00;5206110;28;20623;-83
2022/01/24 10:38:32;;;;;;;0.68;0.68;;;;;;;5.67;73.19;102855.47;5189927;28;20036;-83
2022/01/24 10:41:25;;;;;;;1.10;1.10;;;;;;;5.76;72.67;102844.41;5198584;28;20029;-82
2022/01/24 10:44:03;;;;;;;0.68;0.68;;;;;;;5.68;72.49;102847.69;5205764;28;20147;-83
2022/01/24 10:46:36;;;;;;;0.50;0.50;;;;;;;5.78;72.43;102845.34;5169610;28;20137;-83
2022/01/24 10:49:09;;;;;;;0.47;0.47;;;;;;;5.75;72.74;102842.63;5206639;28;20017;-82
2022/01/24 10:51:53;;;;;;;0.50;0.50;;;;;;;5.61;72.11;102848.34;5202428;28;20029;-83
2022/01/24 10:54:27;;;;;;;0.82;0.82;;;;;;;5.73;71.76;102845.19;5173721;28;20025;-83
2022/01/24 10:56:58;;;;;;;0.50;0.50;;;;;;;5.77;72.04;102840.97;5180817;28;20033;-82
2022/01/24 10:59:29;;;;;;;0.82;0.82;;;;;;;5.87;72.40;102842.97;5208964;28;20033;-82
2022/01/24 11:02:04;;;;;;;0.75;0.75;;;;;;;5.85;72.46;102841.19;5216004;28;20253;-82
2022/01/24 11:04:35;;;;;;;0.85;0.85;;;;;;;5.90;73.14;102836.97;5209044;28;20431;-82
2022/01/24 11:07:06;;;;;;;0.40;0.40;;;;;;;5.91;71.58;102839.59;5229095;28;20033;-83
2022/01/24 11:09:40;;;;;;;0.60;0.60;;;;;;;5.96;71.80;102845.81;5206637;28;20025;-83
2022/01/24 11:12:14;;;;;;;0.38;0.38;;;;;;;5.97;70.73;102844.09;5196879;28;20037;-82
2022/01/24 11:14:45;;;;;;;0.60;0.60;;;;;;;5.86;72.41;102841.22;5192460;28;20037;-82
2022/01/24 11:17:24;;;;;;;0.50;0.50;;;;;;;6.01;72.52;102835.56;5215282;28;20042;-82
2022/01/24 11:20:00;;;;;;;0.95;0.95;;;;;;;6.01;70.67;102839.88;5172338;28;20156;-83
2022/01/24 11:22:34;;;;;;;0.70;0.70;;;;;;;6.11;72.47;102839.28;5187373;28;20559;-83
2022/01/24 11:25:07;;;;;;;1.58;1.10;;;;;;;5.92;71.77;102836.16;5205200;28;20087;-84
2022/01/24 11:27:41;;;;;;;0.70;0.70;;;;;;;6.05;72.61;102832.19;5179534;28;20098;-83
2022/01/24 11:30:19;;;;;;;0.77;0.77;;;;;;;6.10;72.14;102834.91;5193341;28;20847;-84
2022/01/24 11:33:01;;;;;;;0.45;0.45;;;;;;;6.16;70.96;102829.84;5194478;28;20049;-82
2022/01/24 11:35:32;;;;;;;0.50;0.50;;;;;;;6.16;70.19;102829.84;5201930;28;20075;-82
2022/01/24 11:38:03;;;;;;;0.57;0.57;;;;;;;6.19;71.88;102824.72;5181921;28;20148;-84
2022/01/24 11:40:46;;;;;;;0.52;0.52;;;;;;;6.11;71.62;102823.63;5227300;28;20025;-82
2022/01/24 11:43:29;;;;;;;0.60;0.60;;;;;;;6.25;71.84;102821.38;5209901;28;20072;-84
2022/01/24 11:46:06;;;;;;;0.70;0.70;;;;;;;6.22;71.81;102816.97;5208489;28;20087;-83
2022/01/24 11:48:38;;;;;;;0.65;0.65;;;;;;;6.16;71.27;102814.19;5193376;28;20523;-83
2022/01/24 11:51:12;;;;;;;0.43;0.43;;;;;;;6.37;71.80;102807.75;5190452;28;20037;-84
2022/01/24 11:53:44;;;;;;;0.60;0.60;;;;;;;6.14;69.93;102806.34;5183028;28;20121;-83
2022/01/24 11:56:24;;;;;;;0.80;0.80;;;;;;;6.29;72.01;102805.84;5188285;28;20777;-83
2022/01/24 11:59:22;;;;;;;0.68;0.68;;;;;;;6.39;71.44;102800.88;5196040;28;20215;-83
2022/01/24 12:02:13;;;;;;;0.75;0.75;;;;;;;6.32;71.85;102804.16;5215508;28;20169;-83
2022/01/24 12:04:52;;;;;;;0.30;0.30;;;;;;;6.30;71.71;102791.97;5215979;28;20427;-83
2022/01/24 12:07:31;;;;;;;1.15;1.15;;;;;;;6.43;71.97;102792.25;5196800;28;20045;-83
2022/01/24 12:12:55;;;;;;;0.70;0.70;;;;;;;6.37;71.94;102802.53;5188024;28;20042;-83
2022/01/24 12:15:44;;;;;;;0.50;0.50;;;;;;;6.48;70.59;102795.88;5186859;28;20030;-83
2022/01/24 12:18:39;;;;;;;0.40;0.40;;;;;;;6.42;70.02;102794.00;5159556;28;20041;-82
2022/01/24 12:21:15;;;;;;;0.70;0.70;;;;;;;6.45;70.75;102791.44;5170467;28;20095;-84
2022/01/24 12:23:49;;;;;;;0.90;0.90;;;;;;;6.30;68.41;102791.97;5174119;28;20042;-83
2022/01/24 12:26:23;;;;;;;0.70;0.70;;;;;;;6.40;71.56;102797.41;5186641;28;20582;-83
2022/01/24 12:29:04;;;;;;;0.73;0.70;;;;;;;6.47;70.42;102794.09;5206337;28;20558;-83
2022/01/24 12:31:54;;;;;;;1.35;1.25;;;;;;;6.57;71.58;102797.78;5172711;28;20022;-84
2022/01/24 12:34:40;;;;;;;0.80;0.80;;;;;;;6.66;70.56;102799.72;5201477;28;20061;-83
2022/01/24 12:37:22;;;;;;;0.60;0.60;;;;;;;6.69;71.18;102794.59;5191334;28;20404;-81
2022/01/24 12:40:01;;;;;;;0.30;0.30;;;;;;;6.63;71.69;102795.31;5192978;28;20035;-82
2022/01/24 12:48:22;;;;;;;0.98;0.98;;;;;;;6.57;69.30;102800.41;5235762;28;20040;-83
2022/01/24 12:50:54;;;;;;;0.90;0.85;;;;;;;6.68;70.49;102798.03;5215436;28;20111;-82
2022/01/24 12:53:45;;;;;;;0.65;0.65;;;;;;;6.64;70.14;102791.00;5198256;28;20033;-82
2022/01/24 12:56:19;;;;;;;0.68;0.68;;;;;;;6.65;69.69;102792.75;5198604;28;20029;-81
2022/01/24 12:58:52;;;;;;;;;;;;;;;6.71;70.97;102774.63;5176173;28;20041;-81
2022/01/24 13:01:37;;;;;;;3.50;0.93;;;;;;;6.75;71.53;102773.84;5209721;28;19913;-81
2022/01/24 13:04:11;;;;;;;0.60;0.60;;;;;;;6.63;71.10;102769.22;5182169;28;20037;-81
2022/01/24 13:06:43;;;;;;;;;;;;;;;6.78;70.73;102773.91;5201989;28;20033;-81
2022/01/24 13:09:19;;;;;;;0.73;0.73;;;;;;;6.85;71.10;102772.31;5189681;28;20240;-82
2022/01/24 13:11:53;;;;;;;0.43;0.43;;;;;;;6.58;69.73;102771.72;5176723;28;20040;-82
2022/01/24 13:14:45;;;;;;;0.40;0.40;;;;;;;6.82;70.91;102780.94;5208073;28;20047;-80
2022/01/24 13:23:08;;;;;;;3.00;1.42;;;;;;;6.80;70.47;102776.53;5212885;28;20041;-82
2022/01/24 13:25:49;;;;;;;1.10;1.00;;;;;;;6.90;70.53;102778.50;5195503;28;20037;-82
2022/01/24 13:28:26;;;;;;;0.70;0.70;;;;;;;6.88;70.29;102770.66;5188717;28;20761;-85
2022/01/24 13:31:00;;;;;;;0.82;0.82;;;;;;;6.87;71.39;102768.00;5207923;28;20032;-81
2022/01/24 13:33:38;;;;;;;0.98;0.98;;;;;;;6.70;70.40;102778.09;5184727;28;20125;-80
2022/01/24 13:36:13;;;;;;;0.30;0.30;;;;;;;6.89;70.61;102776.75;5193790;28;20029;-81
2022/01/24 13:38:47;;;;;;;16.77;14.30;;;;;;;6.82;69.94;102780.94;5190331;28;20845;-81
2022/01/24 13:41:21;;;;;;;5.15;2.75;;;;;;;6.78;70.38;102773.91;5194953;28;20145;-81
2022/01/24 13:43:57;;;;;;;1.95;1.85;;;;;;;6.85;70.80;102775.81;5226598;28;20037;-80
2022/01/24 13:46:35;;;;;;;0.60;0.60;;;;;;;6.86;70.64;102767.13;5193131;28;20025;-80
2022/01/24 13:49:14;;;;;;;0.60;0.60;;;;;;;6.71;69.21;102756.38;5215479;28;20017;-79
2022/01/24 13:51:49;;;;;;;2.30;2.15;;;;;;;6.79;71.00;102762.63;5236979;28;20063;-80
2022/01/24 13:54:29;;;;;;;0.50;0.50;;;;;;;6.84;70.57;102763.59;5211034;28;20092;-80
2022/01/24 13:57:05;;;;;;;0.60;0.60;;;;;;;6.83;71.11;102759.22;5193825;28;20042;-79
2022/01/24 13:59:36;;;;;;;0.45;0.45;;;;;;;6.84;70.89;102763.59;5186446;28;20038;-80